createdAt,value
2022-08-05T00:02:21.884Z,482.44
2022-08-05T00:08:00.410Z,482.61
2022-08-05T00:13:38.998Z,482.96
2022-08-05T00:18:56.689Z,483.83
2022-08-05T00:24:31.139Z,484.01
2022-08-05T00:30:03.419Z,484.53
2022-08-05T00:35:33.592Z,484.36
2022-08-05T00:41:05.155Z,484.71
2022-08-05T00:46:36.883Z,484.88
2022-08-05T00:52:08.459Z,485.06
2022-08-05T00:57:58.431Z,485.06
2022-08-05T03:04:04.238Z,485.41
2022-08-05T03:09:37.423Z,485.41
2022-08-05T03:15:07.509Z,485.75
2022-08-05T03:20:39.505Z,485.41
2022-08-05T03:26:31.543Z,485.58
2022-08-05T03:31:57.261Z,485.58
2022-08-05T03:37:15.607Z,485.93
2022-08-05T03:42:52.004Z,485.75
2022-08-05T03:48:21.845Z,486.28
2022-08-05T03:56:01.658Z,486.54
2022-08-05T03:59:24.670Z,486.71
2022-08-05T04:04:55.484Z,486.54
2022-08-05T04:10:27.924Z,486.45
2022-08-05T04:16:04.210Z,485.93
2022-08-05T04:22:09.703Z,485.06
2022-08-05T04:27:02.369Z,483.83
2022-08-05T04:32:34.323Z,482.26
2022-08-05T04:38:06.767Z,481.30
2022-08-05T04:43:38.022Z,480.96
2022-08-05T04:49:14.602Z,480.78
2022-08-05T04:54:41.612Z,480.43
2022-08-05T05:00:13.296Z,480.61
2022-08-05T05:06:40.280Z,480.26
2022-08-05T05:11:18.813Z,480.61
2022-08-05T05:16:50.997Z,480.08
2022-08-05T05:22:23.840Z,479.74
2022-08-05T05:27:56.069Z,479.21
2022-08-05T05:33:26.009Z,479.21
2022-08-05T05:38:57.792Z,479.39
2022-08-05T05:44:36.955Z,479.21
2022-08-05T05:52:28.647Z,479.04
2022-08-05T05:57:54.215Z,479.04
2022-08-05T06:04:00.310Z,479.39
2022-08-05T06:08:57.824Z,479.39
2022-08-05T06:14:29.576Z,479.04
2022-08-05T06:20:01.381Z,478.86
2022-08-05T06:26:12.308Z,479.04
2022-08-05T06:31:11.257Z,479.04
2022-08-05T06:36:56.647Z,479.21
2022-08-05T06:42:08.781Z,479.56
2022-08-05T06:48:36.776Z,479.39
2022-08-05T06:53:22.573Z,479.21
2022-08-05T06:58:44.164Z,478.69
2022-08-05T07:04:15.772Z,478.51
2022-08-05T07:09:47.865Z,478.17
2022-08-05T07:15:34.663Z,477.56
2022-08-05T07:20:51.215Z,476.86
2022-08-05T07:26:25.628Z,475.46
2022-08-05T07:31:55.358Z,474.59
2022-08-05T07:37:29.311Z,473.72
2022-08-05T07:42:57.783Z,473.02
2022-08-05T07:49:01.797Z,472.59
2022-08-05T07:54:01.804Z,471.37
2022-08-05T07:59:40.024Z,470.50
2022-08-05T08:10:34.652Z,469.10
2022-08-05T08:16:34.608Z,468.67
2022-08-05T08:21:37.942Z,468.32
2022-08-05T08:27:09.496Z,467.27
2022-08-05T08:32:41.885Z,466.58
2022-08-05T08:38:16.600Z,465.36
2022-08-05T08:45:18.095Z,465.01
2022-08-05T08:50:07.739Z,464.83
2022-08-05T08:54:48.785Z,464.75
2022-08-05T09:00:20.472Z,464.75
2022-08-05T09:06:07.941Z,464.05
2022-08-05T09:11:52.033Z,463.88
2022-08-05T09:16:57.828Z,463.35
2022-08-05T09:28:04.308Z,462.66
2022-08-05T09:33:34.993Z,462.48
2022-08-05T09:39:01.300Z,462.31
2022-08-05T09:44:32.941Z,461.96
2022-08-05T09:50:04.432Z,461.96
2022-08-05T09:55:56.478Z,461.96
2022-08-05T10:01:14.615Z,461.79
2022-08-05T10:06:40.075Z,461.96
2022-08-05T10:12:30.735Z,461.44
2022-08-05T10:17:54.427Z,460.39
2022-08-05T10:23:34.277Z,460.74
2022-08-05T10:28:46.663Z,460.22
2022-08-05T10:34:18.303Z,460.13
2022-08-05T10:39:59.214Z,459.96
2022-08-05T10:45:23.732Z,459.79
2022-08-05T10:50:53.709Z,459.61
2022-08-05T10:56:25.151Z,459.79
2022-08-05T11:07:32.771Z,460.57
2022-08-05T11:12:58.375Z,461.44
2022-08-05T11:18:32.614Z,461.44
2022-08-05T11:24:04.924Z,460.57
2022-08-05T11:29:33.984Z,461.44
2022-08-05T11:35:05.459Z,461.79
2022-08-05T11:40:37.130Z,461.79
2022-08-05T11:46:27.041Z,462.31
2022-08-05T11:57:25.331Z,462.83
2022-08-05T12:02:46.059Z,463.01
2022-08-05T12:08:18.043Z,463.35
2022-08-05T12:13:50.074Z,463.88
2022-08-05T12:20:16.713Z,464.40
2022-08-05T12:24:53.314Z,464.40
2022-08-05T12:30:24.927Z,464.83
2022-08-05T12:35:56.919Z,465.36
2022-08-05T12:41:34.515Z,465.88
2022-08-05T12:46:59.892Z,466.40
2022-08-05T12:52:39.530Z,466.92
2022-08-05T13:03:41.616Z,467.80
2022-08-05T13:09:08.540Z,467.97
2022-08-05T13:14:39.017Z,468.32
2022-08-05T13:20:11.482Z,468.67
2022-08-05T13:25:51.830Z,468.93
2022-08-05T13:31:14.697Z,469.10
2022-08-05T13:36:46.225Z,469.28
2022-08-05T13:42:18.036Z,469.62
2022-08-05T13:48:09.848Z,469.97
2022-08-05T13:53:21.374Z,470.67
2022-08-05T13:58:53.880Z,470.32
2022-08-05T14:04:26.582Z,470.50
2022-08-05T14:09:56.377Z,470.84
2022-08-05T14:16:07.547Z,471.54
2022-08-05T14:21:00.187Z,472.24
2022-08-05T14:26:38.555Z,473.02
2022-08-05T14:32:15.978Z,473.72
2022-08-05T14:37:48.069Z,474.59
2022-08-05T14:43:07.406Z,475.29
2022-08-05T14:48:38.948Z,476.33
2022-08-05T14:54:27.690Z,477.03
2022-08-05T14:59:42.585Z,477.56
2022-08-05T15:05:14.339Z,478.17
2022-08-05T15:10:46.767Z,478.34
2022-08-05T15:16:18.022Z,478.34
2022-08-05T15:21:50.129Z,478.17
2022-08-05T15:27:25.729Z,478.51
2022-08-05T15:32:54.215Z,477.82
2022-08-05T15:38:35.388Z,477.56
2022-08-05T15:43:57.938Z,477.03
2022-08-05T15:49:48.048Z,476.68
2022-08-05T15:55:02.209Z,476.86
2022-08-05T16:00:50.854Z,476.51
2022-08-05T16:06:06.150Z,476.51
2022-08-05T16:11:42.366Z,476.33
2022-08-05T16:17:10.095Z,476.33
2022-08-05T16:22:41.776Z,476.51
2022-08-05T16:28:13.517Z,476.68
2022-08-05T16:33:45.178Z,476.68
2022-08-05T16:39:17.009Z,476.33
2022-08-05T16:44:54.350Z,476.33
2022-08-05T16:50:20.620Z,475.99
2022-08-05T16:55:58.470Z,475.81
2022-08-05T17:01:52.982Z,475.64
2022-08-05T17:07:03.322Z,475.64
2022-08-05T17:12:51.079Z,475.29
2022-08-05T17:18:14.086Z,475.11
2022-08-05T17:24:04.778Z,475.11
2022-08-05T17:29:16.729Z,475.11
2022-08-05T17:34:49.325Z,474.94
2022-08-05T17:40:22.440Z,474.94
2022-08-05T17:45:52.578Z,474.77
2022-08-05T17:51:24.658Z,474.94
2022-08-05T17:56:56.497Z,474.77
2022-08-05T18:02:28.866Z,474.42
2022-08-05T18:08:00.619Z,473.72
2022-08-05T18:13:36.774Z,473.37
2022-08-05T18:19:04.290Z,473.37
2022-08-05T18:24:35.842Z,472.94
2022-08-05T18:30:07.655Z,472.76
2022-08-05T18:36:00.490Z,472.06
2022-08-05T18:41:55.809Z,471.37
2022-08-05T18:46:43.416Z,471.19
2022-08-05T18:52:15.322Z,470.67
2022-08-05T18:57:52.811Z,470.67
2022-08-05T19:03:18.943Z,470.32
2022-08-05T19:06:12.424Z,469.28
2022-08-05T19:11:05.103Z,468.49
2022-08-05T19:16:36.907Z,467.10
2022-08-05T19:22:07.784Z,466.05
2022-08-05T19:27:41.027Z,465.36
2022-08-05T19:33:16.914Z,464.75
2022-08-05T19:38:45.526Z,463.70
2022-08-05T19:44:18.392Z,463.35
2022-08-05T19:49:50.101Z,462.31
2022-08-05T20:00:56.419Z,460.39
2022-08-05T20:06:29.201Z,460.57
2022-08-05T20:11:59.943Z,460.74
2022-08-05T20:17:31.437Z,460.57
2022-08-05T20:23:03.006Z,459.96
2022-08-05T20:28:34.598Z,456.83
2022-08-05T20:34:06.513Z,454.83
2022-08-05T20:39:38.465Z,453.43
2022-08-05T20:50:47.998Z,448.30
2022-08-05T20:56:28.813Z,445.26
2022-08-05T21:01:51.382Z,443.52
2022-08-05T21:07:23.187Z,442.39
2022-08-05T21:13:09.081Z,441.35
2022-08-05T21:18:26.797Z,441.87
2022-08-05T21:23:58.380Z,441.00
2022-08-05T21:29:31.785Z,439.61
2022-08-05T21:35:16.829Z,437.88
2022-08-05T21:40:34.929Z,437.27
2022-08-05T21:46:06.849Z,437.27
2022-08-05T21:52:27.829Z,436.57
2022-08-05T21:57:30.699Z,435.53
2022-08-05T22:02:42.551Z,434.66
2022-08-05T22:08:22.206Z,434.49
2022-08-05T22:14:19.510Z,434.66
2022-08-05T22:20:02.680Z,435.01
2022-08-05T22:24:52.181Z,435.18
2022-08-05T22:30:21.862Z,435.18
2022-08-05T22:35:53.986Z,435.01
2022-08-05T22:42:04.765Z,434.66
2022-08-05T22:46:57.281Z,433.36
2022-08-05T22:52:32.317Z,432.32
2022-08-05T23:03:57.356Z,429.72
2022-08-05T23:09:27.425Z,429.11
2022-08-05T23:14:36.737Z,428.59
2022-08-05T23:20:15.525Z,428.41
2022-08-05T23:25:51.447Z,428.59
2022-08-05T23:31:16.892Z,428.07
2022-08-05T23:36:45.182Z,427.89
2022-08-05T23:42:16.734Z,427.55
2022-08-05T23:47:48.583Z,427.55
2022-08-05T23:53:22.512Z,427.55
2022-08-05T23:58:52.143Z,427.03
